createdAt,value
2023-03-06T00:01:57.787Z,44.98
2023-03-06T00:04:24.898Z,45.22
2023-03-06T00:06:52.005Z,44.93
2023-03-06T00:09:18.923Z,44.93
2023-03-06T00:11:46.042Z,44.45
2023-03-06T00:14:12.997Z,44.59
2023-03-06T00:16:40.009Z,44.80
2023-03-06T00:19:06.944Z,44.93
2023-03-06T00:21:34.033Z,45.31
2023-03-06T00:24:01.036Z,44.50
2023-03-06T00:26:28.074Z,44.62
2023-03-06T00:28:55.334Z,45.19
2023-03-06T00:31:22.746Z,45.74
2023-03-06T00:33:50.021Z,45.29
2023-03-06T00:36:18.259Z,44.97
2023-03-06T00:38:45.272Z,45.05
2023-03-06T00:41:12.891Z,45.25
2023-03-06T00:43:40.046Z,45.09
2023-03-06T00:46:08.319Z,45.14
2023-03-06T00:48:35.554Z,45.44
2023-03-06T00:51:02.569Z,45.22
2023-03-06T00:53:29.644Z,45.87
2023-03-06T00:55:56.793Z,45.80
2023-03-06T00:58:23.973Z,45.74
2023-03-06T01:00:52.148Z,45.98
2023-03-06T01:03:19.342Z,46.06
2023-03-06T01:05:46.681Z,45.55
2023-03-06T01:08:13.672Z,46.00
2023-03-06T01:10:40.822Z,46.01
2023-03-06T01:13:09.803Z,45.72
2023-03-06T01:15:36.752Z,45.81
2023-03-06T01:18:03.894Z,45.77
2023-03-06T01:20:31.007Z,45.83
2023-03-06T01:22:58.882Z,46.17
2023-03-06T01:25:26.039Z,46.09
2023-03-06T01:27:53.296Z,46.13
2023-03-06T01:30:20.523Z,45.82
2023-03-06T01:32:48.643Z,46.41
2023-03-06T01:35:15.843Z,45.85
2023-03-06T01:37:43.365Z,46.50
2023-03-06T01:40:11.534Z,47.31
2023-03-06T01:42:38.557Z,46.83
2023-03-06T01:45:11.574Z,46.63
2023-03-06T01:47:38.669Z,46.61
2023-03-06T01:50:07.058Z,46.01
2023-03-06T01:52:56.165Z,45.77
2023-03-06T01:55:27.383Z,46.98
2023-03-06T01:57:57.867Z,47.08
2023-03-06T02:00:28.677Z,45.99
2023-03-06T02:03:16.291Z,46.13
2023-03-06T02:05:44.560Z,46.02
2023-03-06T02:08:12.493Z,45.94
2023-03-06T02:10:50.457Z,45.67
2023-03-06T02:13:17.449Z,46.20
2023-03-06T02:15:44.498Z,46.02
2023-03-06T02:18:11.544Z,46.61
2023-03-06T02:20:43.905Z,46.79
2023-03-06T02:23:19.919Z,46.47
2023-03-06T02:25:50.909Z,46.38
2023-03-06T02:28:18.883Z,46.16
2023-03-06T02:30:47.139Z,46.70
2023-03-06T02:33:15.307Z,46.73
2023-03-06T02:35:46.700Z,46.61
2023-03-06T02:38:15.204Z,46.78
2023-03-06T02:40:43.333Z,46.64
2023-03-06T02:43:11.278Z,46.64
2023-03-06T02:45:39.945Z,46.69
2023-03-06T02:48:07.235Z,46.57
2023-03-06T02:50:35.771Z,46.83
2023-03-06T02:53:02.880Z,47.62
2023-03-06T02:55:31.305Z,46.79
2023-03-06T02:57:58.402Z,46.59
2023-03-06T03:00:26.091Z,46.61
2023-03-06T03:02:53.914Z,46.66
2023-03-06T03:05:21.086Z,46.88
2023-03-06T03:07:54.460Z,47.51
2023-03-06T03:10:21.922Z,47.48
2023-03-06T03:12:49.847Z,47.55
2023-03-06T03:15:17.749Z,48.00
2023-03-06T03:17:45.198Z,47.90
2023-03-06T03:20:14.194Z,47.47
2023-03-06T03:22:41.455Z,47.40
2023-03-06T03:25:09.050Z,46.96
2023-03-06T03:27:37.105Z,47.18
2023-03-06T03:30:05.195Z,47.14
2023-03-06T03:32:32.826Z,46.68
2023-03-06T03:35:00.171Z,46.65
2023-03-06T03:37:28.397Z,46.10
2023-03-06T03:39:56.644Z,46.42
2023-03-06T03:42:23.627Z,46.49
2023-03-06T03:44:50.767Z,46.60
2023-03-06T03:47:20.985Z,46.88
2023-03-06T03:49:48.702Z,46.41
2023-03-06T03:52:15.797Z,46.03
2023-03-06T03:54:42.826Z,46.51
2023-03-06T03:57:10.247Z,46.60
2023-03-06T03:59:41.629Z,46.72
2023-03-06T04:02:15.186Z,46.64
2023-03-06T04:04:51.070Z,47.15
2023-03-06T04:07:18.439Z,47.49
2023-03-06T04:09:45.970Z,47.65
2023-03-06T04:12:13.412Z,48.35
2023-03-06T04:14:40.549Z,48.08
2023-03-06T04:17:08.281Z,47.68
2023-03-06T04:19:35.429Z,47.74
2023-03-06T04:22:02.628Z,47.83
2023-03-06T04:24:32.017Z,47.06
2023-03-06T04:26:59.085Z,47.24
2023-03-06T04:29:27.079Z,47.20
2023-03-06T04:31:54.172Z,47.29
2023-03-06T04:34:21.802Z,47.32
2023-03-06T04:36:48.835Z,47.40
2023-03-06T04:39:17.512Z,47.93
2023-03-06T04:41:44.757Z,48.02
2023-03-06T04:44:11.896Z,47.20
2023-03-06T04:46:38.954Z,47.14
2023-03-06T04:49:06.033Z,48.84
2023-03-06T04:51:33.137Z,47.89
2023-03-06T04:54:00.053Z,48.38
2023-03-06T04:56:26.999Z,48.00
2023-03-06T04:58:53.955Z,47.90
2023-03-06T05:01:21.056Z,48.50
2023-03-06T05:03:50.131Z,49.09
2023-03-06T05:06:17.216Z,49.21
2023-03-06T05:08:46.787Z,49.13
2023-03-06T05:11:14.197Z,50.21
2023-03-06T05:13:41.584Z,49.19
2023-03-06T05:16:09.057Z,49.28
2023-03-06T05:18:36.803Z,48.86
2023-03-06T05:21:04.320Z,48.86
2023-03-06T05:23:34.372Z,48.44
2023-03-06T05:26:01.516Z,48.52
2023-03-06T05:28:28.807Z,48.86
2023-03-06T05:30:56.148Z,48.61
2023-03-06T05:33:23.341Z,48.59
2023-03-06T05:35:52.247Z,48.38
2023-03-06T05:38:19.612Z,48.34
2023-03-06T05:40:46.643Z,48.45
2023-03-06T05:43:13.722Z,48.63
2023-03-06T05:45:42.446Z,48.42
2023-03-06T05:48:10.781Z,48.49
2023-03-06T05:50:38.004Z,48.71
2023-03-06T05:53:05.855Z,48.57
2023-03-06T05:55:32.897Z,48.38
2023-03-06T05:58:00.370Z,48.46
2023-03-06T06:00:27.797Z,48.52
2023-03-06T06:02:54.937Z,48.33
2023-03-06T06:05:23.339Z,48.58
2023-03-06T06:07:50.360Z,48.45
2023-03-06T06:10:18.034Z,48.33
2023-03-06T06:12:45.060Z,48.28
2023-03-06T06:15:13.226Z,47.97
2023-03-06T06:17:40.279Z,47.96
2023-03-06T06:20:10.903Z,48.23
2023-03-06T06:22:41.053Z,48.02
2023-03-06T06:25:08.821Z,48.43
2023-03-06T06:27:36.351Z,48.67
2023-03-06T06:30:04.771Z,48.57
2023-03-06T06:32:32.332Z,48.66
2023-03-06T06:34:59.563Z,48.63
2023-03-06T06:37:27.422Z,48.07
2023-03-06T06:39:54.852Z,48.13
2023-03-06T06:42:32.631Z,48.06
2023-03-06T06:45:01.440Z,48.06
2023-03-06T06:47:28.673Z,48.25
2023-03-06T06:49:56.739Z,48.84
2023-03-06T06:52:24.247Z,48.37
2023-03-06T06:54:52.190Z,48.47
2023-03-06T06:57:19.749Z,48.80
2023-03-06T06:59:46.903Z,48.87
2023-03-06T07:02:14.923Z,48.72
2023-03-06T07:04:52.740Z,48.80
2023-03-06T07:07:27.794Z,48.58
2023-03-06T07:09:55.507Z,48.77
2023-03-06T07:12:23.922Z,48.23
2023-03-06T07:14:51.901Z,48.83
2023-03-06T07:17:19.353Z,49.84
2023-03-06T07:19:46.775Z,49.82
2023-03-06T07:22:14.967Z,49.70
2023-03-06T07:24:42.477Z,49.74
2023-03-06T07:27:09.900Z,49.37
2023-03-06T07:29:37.065Z,49.28
2023-03-06T07:32:04.290Z,50.91
2023-03-06T07:34:31.372Z,50.27
2023-03-06T07:36:58.642Z,49.45
2023-03-06T07:39:25.995Z,47.21
2023-03-06T07:41:53.657Z,47.97
2023-03-06T07:44:22.393Z,49.12
2023-03-06T07:46:49.646Z,48.05
2023-03-06T07:49:17.806Z,47.78
2023-03-06T07:51:45.799Z,47.32
2023-03-06T07:54:12.923Z,47.22
2023-03-06T07:56:39.987Z,46.74
2023-03-06T07:59:07.437Z,46.44
2023-03-06T08:01:36.596Z,47.58
2023-03-06T08:04:05.870Z,46.80
2023-03-06T08:06:33.738Z,46.52
2023-03-06T08:09:00.889Z,46.05
2023-03-06T08:11:29.061Z,45.72
2023-03-06T08:13:56.662Z,45.00
2023-03-06T08:16:25.921Z,45.10
2023-03-06T08:18:53.954Z,44.09
2023-03-06T08:21:23.995Z,44.90
2023-03-06T08:23:51.280Z,44.84
2023-03-06T08:26:24.116Z,45.44
2023-03-06T08:28:55.296Z,46.23
2023-03-06T08:31:25.468Z,45.66
2023-03-06T08:33:53.678Z,45.23
2023-03-06T08:36:20.866Z,45.49
2023-03-06T08:38:48.407Z,45.38
2023-03-06T08:41:15.461Z,45.38
2023-03-06T08:43:42.728Z,44.91
2023-03-06T08:46:12.847Z,45.00
2023-03-06T08:48:40.304Z,44.86
2023-03-06T08:51:09.709Z,45.77
2023-03-06T08:53:42.981Z,45.11
2023-03-06T08:56:22.024Z,45.81
2023-03-06T08:58:49.080Z,48.33
2023-03-06T09:01:29.399Z,49.06
2023-03-06T09:03:57.959Z,48.70
2023-03-06T09:06:25.271Z,47.83
2023-03-06T09:08:52.877Z,48.98
2023-03-06T09:11:20.108Z,49.47
2023-03-06T09:13:47.615Z,49.18
2023-03-06T09:16:14.682Z,47.80
2023-03-06T09:18:41.874Z,46.56
2023-03-06T09:21:09.308Z,45.91
2023-03-06T09:23:37.220Z,46.45
2023-03-06T09:26:05.229Z,48.29
2023-03-06T09:28:35.781Z,47.54
2023-03-06T09:31:07.047Z,47.21
2023-03-06T09:33:34.145Z,47.16
2023-03-06T09:36:02.183Z,47.72
2023-03-06T09:38:29.487Z,48.56
2023-03-06T09:41:26.771Z,48.22
2023-03-06T09:43:56.640Z,47.00
2023-03-06T09:46:47.261Z,46.43
2023-03-06T09:49:51.902Z,48.41
2023-03-06T09:52:19.013Z,48.91
2023-03-06T09:54:47.832Z,49.92
2023-03-06T09:57:42.761Z,48.17
2023-03-06T10:00:26.754Z,47.51
2023-03-06T10:03:19.585Z,47.70
2023-03-06T10:05:59.892Z,48.77
2023-03-06T10:08:43.658Z,47.46
2023-03-06T10:11:11.172Z,48.66
2023-03-06T10:13:50.721Z,47.65
2023-03-06T10:16:27.121Z,47.58
2023-03-06T10:19:05.717Z,46.88
2023-03-06T10:21:59.146Z,50.14
2023-03-06T10:24:53.342Z,49.70
2023-03-06T10:27:47.074Z,52.90
2023-03-06T10:30:17.041Z,53.57
2023-03-06T10:32:55.337Z,50.73
2023-03-06T10:35:24.994Z,51.66
2023-03-06T10:37:52.416Z,51.71
2023-03-06T10:40:22.535Z,50.16
2023-03-06T10:42:53.965Z,50.10
2023-03-06T10:45:29.933Z,49.25
2023-03-06T10:48:11.128Z,49.86
2023-03-06T10:50:38.384Z,51.76
2023-03-06T10:53:07.401Z,50.36
2023-03-06T10:55:35.387Z,47.64
2023-03-06T10:58:22.116Z,47.79
2023-03-06T11:01:02.769Z,47.23
2023-03-06T11:03:30.369Z,46.23
2023-03-06T11:06:10.834Z,46.93
2023-03-06T11:08:39.818Z,47.57
2023-03-06T11:11:22.450Z,45.77
2023-03-06T11:13:58.917Z,47.68
2023-03-06T11:16:30.801Z,50.60
2023-03-06T11:19:00.002Z,50.81
2023-03-06T11:21:31.754Z,48.05
2023-03-06T11:24:19.031Z,48.40
2023-03-06T11:26:50.985Z,49.46
2023-03-06T11:29:35.705Z,46.84
2023-03-06T11:32:30.236Z,45.68
2023-03-06T11:35:10.187Z,47.50
2023-03-06T11:37:59.345Z,47.86
2023-03-06T11:40:32.287Z,47.81
2023-03-06T11:43:30.244Z,45.54
2023-03-06T11:46:12.473Z,43.60
2023-03-06T11:48:42.472Z,44.93
2023-03-06T11:51:23.618Z,45.40
2023-03-06T11:54:05.176Z,47.05
2023-03-06T11:56:58.056Z,46.56
2023-03-06T11:59:59.130Z,46.76
2023-03-06T12:03:03.923Z,46.13
2023-03-06T12:05:45.088Z,48.24
2023-03-06T12:08:45.273Z,46.17
2023-03-06T12:11:20.216Z,44.76
2023-03-06T12:14:11.574Z,43.43
2023-03-06T12:16:58.804Z,45.12
2023-03-06T12:19:44.717Z,44.59
2023-03-06T12:22:15.093Z,47.05
2023-03-06T12:25:04.127Z,48.33
2023-03-06T12:27:53.047Z,46.90
2023-03-06T12:30:48.400Z,47.69
2023-03-06T12:33:35.769Z,46.39
2023-03-06T12:36:05.797Z,44.34
2023-03-06T12:39:07.157Z,44.97
2023-03-06T12:41:34.481Z,46.34
2023-03-06T12:44:29.473Z,43.21
2023-03-06T12:47:09.441Z,41.48
2023-03-06T12:49:38.995Z,40.60
2023-03-06T12:52:11.018Z,42.56
2023-03-06T12:54:39.599Z,43.09
2023-03-06T12:57:08.592Z,42.32
2023-03-06T12:59:37.584Z,42.80
2023-03-06T13:02:10.627Z,42.70
2023-03-06T13:04:51.848Z,41.59
2023-03-06T13:07:30.918Z,42.35
2023-03-06T13:10:08.915Z,42.85
2023-03-06T13:12:41.744Z,41.35
2023-03-06T13:15:41.290Z,40.50
2023-03-06T13:18:23.281Z,42.34
2023-03-06T13:20:53.716Z,42.51
2023-03-06T13:23:30.413Z,41.76
2023-03-06T13:25:58.280Z,41.92
2023-03-06T13:28:50.113Z,41.32
2023-03-06T13:31:32.630Z,40.45
2023-03-06T13:34:03.644Z,40.70
2023-03-06T13:36:35.270Z,42.93
2023-03-06T13:39:06.263Z,43.54
2023-03-06T13:41:37.814Z,43.87
2023-03-06T13:44:25.403Z,45.10
2023-03-06T13:47:05.380Z,42.17
2023-03-06T13:49:32.520Z,41.35
2023-03-06T13:52:10.315Z,41.50
2023-03-06T13:55:29.080Z,40.21
2023-03-06T13:58:18.251Z,40.42
2023-03-06T14:01:02.252Z,42.00
2023-03-06T14:03:40.938Z,43.83
2023-03-06T14:06:36.154Z,45.77
2023-03-06T14:09:25.307Z,43.90
2023-03-06T14:11:55.335Z,43.25
2023-03-06T14:14:29.506Z,47.36
2023-03-06T14:16:57.478Z,49.42
2023-03-06T14:19:24.553Z,51.93
2023-03-06T14:21:55.990Z,53.12
2023-03-06T14:24:38.441Z,53.41
2023-03-06T14:27:05.647Z,53.15
2023-03-06T14:29:33.149Z,53.10
2023-03-06T14:32:01.160Z,52.04
2023-03-06T14:34:30.923Z,55.10
2023-03-06T14:37:02.698Z,55.96
2023-03-06T14:39:43.780Z,57.99
2023-03-06T14:42:21.934Z,57.89
2023-03-06T14:44:49.619Z,58.60
2023-03-06T14:47:29.185Z,60.83
2023-03-06T14:50:35.303Z,61.06
2023-03-06T14:53:14.134Z,59.43
2023-03-06T14:56:06.294Z,58.20
2023-03-06T14:58:36.728Z,58.70
2023-03-06T15:01:06.116Z,58.12
2023-03-06T15:03:42.739Z,56.27
2023-03-06T15:06:31.429Z,57.60
2023-03-06T15:09:02.127Z,58.13
2023-03-06T15:11:56.120Z,57.00
2023-03-06T15:14:33.534Z,59.43
2023-03-06T15:17:18.821Z,57.75
2023-03-06T15:19:47.110Z,56.39
2023-03-06T15:22:37.997Z,53.89
2023-03-06T15:25:21.614Z,53.31
2023-03-06T15:27:52.288Z,54.34
2023-03-06T15:30:23.669Z,53.50
2023-03-06T15:32:50.969Z,52.23
2023-03-06T15:35:32.001Z,53.16
2023-03-06T15:37:59.526Z,52.02
2023-03-06T15:40:28.855Z,52.06
2023-03-06T15:42:56.310Z,54.92
2023-03-06T15:45:24.457Z,55.50
2023-03-06T15:47:52.359Z,54.17
2023-03-06T15:50:25.037Z,52.84
2023-03-06T15:52:52.372Z,50.63
2023-03-06T15:55:21.146Z,49.39
2023-03-06T15:57:54.239Z,49.57
2023-03-06T16:00:34.343Z,48.58
2023-03-06T16:03:01.682Z,48.89
2023-03-06T16:05:29.588Z,48.63
2023-03-06T16:07:57.021Z,47.30
2023-03-06T16:10:25.620Z,47.64
2023-03-06T16:13:02.679Z,47.48
2023-03-06T16:15:29.963Z,47.53
2023-03-06T16:17:57.291Z,47.74
2023-03-06T16:20:26.145Z,47.06
2023-03-06T16:22:54.857Z,47.48
2023-03-06T16:25:23.166Z,47.79
2023-03-06T16:27:55.592Z,48.01
2023-03-06T16:30:22.918Z,47.30
2023-03-06T16:32:50.244Z,46.96
2023-03-06T16:35:18.679Z,46.99
2023-03-06T16:37:46.050Z,46.68
2023-03-06T16:40:33.997Z,46.05
2023-03-06T16:43:01.388Z,46.52
2023-03-06T16:45:28.670Z,46.26
2023-03-06T16:47:56.081Z,45.61
2023-03-06T16:50:30.286Z,47.02
2023-03-06T16:52:57.915Z,46.88
2023-03-06T16:55:26.308Z,46.23
2023-03-06T16:57:53.720Z,46.24
2023-03-06T17:00:21.177Z,46.55
2023-03-06T17:02:48.686Z,46.40
2023-03-06T17:05:16.761Z,45.44
2023-03-06T17:07:44.020Z,46.97
2023-03-06T17:10:13.236Z,45.71
2023-03-06T17:12:40.248Z,45.70
2023-03-06T17:15:07.795Z,45.48
2023-03-06T17:17:35.106Z,45.34
2023-03-06T17:20:02.903Z,45.73
2023-03-06T17:22:32.703Z,46.08
2023-03-06T17:25:04.918Z,45.68
2023-03-06T17:27:32.019Z,45.74
2023-03-06T17:29:59.408Z,45.67
2023-03-06T17:32:27.550Z,45.45
2023-03-06T17:34:56.669Z,45.87
2023-03-06T17:37:24.159Z,45.39
2023-03-06T17:39:51.247Z,45.49
2023-03-06T17:42:18.338Z,46.27
2023-03-06T17:44:46.580Z,45.99
2023-03-06T17:47:13.841Z,45.86
2023-03-06T17:49:40.896Z,46.39
2023-03-06T17:52:08.239Z,45.99
2023-03-06T17:54:36.180Z,46.00
2023-03-06T17:57:06.072Z,45.94
2023-03-06T17:59:35.826Z,46.00
2023-03-06T18:02:03.130Z,46.44
2023-03-06T18:04:30.349Z,46.26
2023-03-06T18:06:58.451Z,46.06
2023-03-06T18:09:25.891Z,45.85
2023-03-06T18:11:53.006Z,46.35
2023-03-06T18:14:20.066Z,46.20
2023-03-06T18:16:47.499Z,45.99
2023-03-06T18:19:15.177Z,46.32
2023-03-06T18:21:42.388Z,45.67
2023-03-06T18:24:11.032Z,46.05
2023-03-06T18:26:38.177Z,45.95
2023-03-06T18:29:05.523Z,45.87
2023-03-06T18:31:34.990Z,45.73
2023-03-06T18:34:03.932Z,46.05
2023-03-06T18:36:32.059Z,45.13
2023-03-06T18:39:03.655Z,45.45
2023-03-06T18:41:30.977Z,45.12
2023-03-06T18:43:59.217Z,45.39
2023-03-06T18:46:26.525Z,45.51
2023-03-06T18:48:55.263Z,45.24
2023-03-06T18:51:22.416Z,45.38
2023-03-06T18:53:50.033Z,45.13
2023-03-06T18:56:19.426Z,45.26
2023-03-06T18:58:46.822Z,45.11
2023-03-06T19:01:14.237Z,45.74
2023-03-06T19:03:42.712Z,45.25
2023-03-06T19:06:11.395Z,45.44
2023-03-06T19:08:39.019Z,45.35
2023-03-06T19:11:08.069Z,45.42
2023-03-06T19:13:35.661Z,45.12
2023-03-06T19:16:03.387Z,45.38
2023-03-06T19:18:30.547Z,44.58
2023-03-06T19:21:12.053Z,45.08
2023-03-06T19:23:39.751Z,44.77
2023-03-06T19:26:07.722Z,44.76
2023-03-06T19:28:35.648Z,43.85
2023-03-06T19:31:19.500Z,43.67
2023-03-06T19:33:48.609Z,43.58
2023-03-06T19:36:16.804Z,43.64
2023-03-06T19:38:44.498Z,43.58
2023-03-06T19:41:13.841Z,42.75
2023-03-06T19:43:41.771Z,43.88
2023-03-06T19:46:15.163Z,44.31
2023-03-06T19:48:42.297Z,43.50
2023-03-06T19:51:09.504Z,43.86
2023-03-06T19:53:36.810Z,43.97
2023-03-06T19:56:09.026Z,43.96
2023-03-06T19:58:36.444Z,43.37
2023-03-06T20:01:05.410Z,44.20
2023-03-06T20:03:32.590Z,44.02
2023-03-06T20:05:59.844Z,43.82
2023-03-06T20:08:26.930Z,43.38
2023-03-06T20:10:54.345Z,43.44
2023-03-06T20:13:21.376Z,44.12
2023-03-06T20:15:48.459Z,43.82
2023-03-06T20:18:15.625Z,44.22
2023-03-06T20:20:42.621Z,44.80
2023-03-06T20:23:09.711Z,43.63
2023-03-06T20:25:37.209Z,44.16
2023-03-06T20:28:05.092Z,44.21
2023-03-06T20:30:38.128Z,44.05
2023-03-06T20:33:05.936Z,43.53
2023-03-06T20:35:33.395Z,44.21
2023-03-06T20:38:00.902Z,43.95
2023-03-06T20:40:28.091Z,43.94
2023-03-06T20:42:55.070Z,43.91
2023-03-06T20:45:22.240Z,43.99
2023-03-06T20:47:49.617Z,43.35
2023-03-06T20:50:17.153Z,44.02
2023-03-06T20:52:44.727Z,43.21
2023-03-06T20:55:12.646Z,42.74
2023-03-06T20:57:39.788Z,42.45
2023-03-06T21:00:07.647Z,43.41
2023-03-06T21:02:34.572Z,43.29
2023-03-06T21:05:01.867Z,43.11
2023-03-06T21:07:29.602Z,42.91
2023-03-06T21:09:56.731Z,43.10
2023-03-06T21:12:23.780Z,43.99
2023-03-06T21:14:51.000Z,43.93
2023-03-06T21:17:18.110Z,44.21
2023-03-06T21:19:46.558Z,43.91
2023-03-06T21:22:14.359Z,43.78
2023-03-06T21:24:41.781Z,44.04
2023-03-06T21:27:09.229Z,43.36
2023-03-06T21:29:37.683Z,43.14
2023-03-06T21:32:05.309Z,42.59
2023-03-06T21:34:32.816Z,43.48
2023-03-06T21:36:59.817Z,43.40
2023-03-06T21:39:27.801Z,43.28
2023-03-06T21:41:55.175Z,43.14
2023-03-06T21:44:23.030Z,43.11
2023-03-06T21:46:50.610Z,43.67
2023-03-06T21:49:18.398Z,44.02
2023-03-06T21:51:45.675Z,43.34
2023-03-06T21:54:13.252Z,43.44
2023-03-06T21:56:40.311Z,44.50
2023-03-06T21:59:07.279Z,44.15
2023-03-06T22:01:34.428Z,44.41
2023-03-06T22:04:02.077Z,44.69
2023-03-06T22:06:31.009Z,44.05
2023-03-06T22:09:00.280Z,44.26
2023-03-06T22:11:31.727Z,43.76
2023-03-06T22:14:00.316Z,43.56
2023-03-06T22:16:27.347Z,43.57
2023-03-06T22:18:54.437Z,43.63
2023-03-06T22:21:24.681Z,43.86
2023-03-06T22:23:53.714Z,43.45
2023-03-06T22:26:20.997Z,43.30
2023-03-06T22:28:49.607Z,42.95
2023-03-06T22:31:25.709Z,43.11
2023-03-06T22:33:54.155Z,43.56
2023-03-06T22:36:21.519Z,43.49
2023-03-06T22:38:48.766Z,43.12
2023-03-06T22:41:17.869Z,43.34
2023-03-06T22:43:45.220Z,42.96
2023-03-06T22:46:13.967Z,42.69
2023-03-06T22:48:44.362Z,42.83
2023-03-06T22:51:16.325Z,43.05
2023-03-06T22:53:43.772Z,42.87
2023-03-06T22:56:14.515Z,43.40
2023-03-06T22:58:41.840Z,42.41
2023-03-06T23:01:23.439Z,42.73
2023-03-06T23:03:51.559Z,43.19
2023-03-06T23:06:19.522Z,44.22
2023-03-06T23:08:54.314Z,43.45
2023-03-06T23:11:22.782Z,43.41
2023-03-06T23:14:12.184Z,42.68
2023-03-06T23:16:57.825Z,43.45
2023-03-06T23:19:43.789Z,43.66
2023-03-06T23:22:31.040Z,43.81
2023-03-06T23:25:17.495Z,44.19
2023-03-06T23:27:45.040Z,43.68
2023-03-06T23:30:12.630Z,44.65
2023-03-06T23:32:40.940Z,44.68
2023-03-06T23:35:08.752Z,44.39
2023-03-06T23:37:36.676Z,43.77
2023-03-06T23:40:06.227Z,43.07
2023-03-06T23:42:35.629Z,43.30
2023-03-06T23:45:04.332Z,44.01
2023-03-06T23:47:33.928Z,44.29
2023-03-06T23:50:00.979Z,43.39
2023-03-06T23:52:28.247Z,43.48
2023-03-06T23:54:56.876Z,43.03
2023-03-06T23:57:24.256Z,42.52
2023-03-06T23:59:51.746Z,43.16
